Rushville, Missouri
Current Conditions -  °F | °C
As of 7:53 AM on Monday 22 Dec 2014 (Local Time) from KSTJ Reporting Station
Light Rain Light Rain  
Wind Chill: 37°   Ceiling: 700
Heat Index: 42°   Visibility: 6mi
Dew Point: 40°   Wind: 9mph
Humidity: 92%   Direction: 150°SSE
Pressure: 29.59"   Gusts: NA
Location:  39.59°N, 95.03°W
Report Text: KSTJ 221353Z 15008KT 6SM -RA BR OVC007 06/04 A2959 RMK AO2 SLP023 P0003 T00560044
Loading
Personal Weather Stations






























Interactive Weather Map New forecast layout! Learn more

10-Day Weather Forecast

Advertisements
Track Severe Weather on mobile